createdAt,value
2018-12-11T00:00:20.400Z,16.07
2018-12-11T00:02:54.556Z,14.13
2018-12-11T00:05:30.799Z,14.37
2018-12-11T00:08:04.630Z,14.17
2018-12-11T00:10:39.890Z,13.20
2018-12-11T00:13:16.018Z,13.73
2018-12-11T00:15:50.337Z,13.43
2018-12-11T00:18:25.746Z,12.97
2018-12-11T00:21:00.151Z,14.23
2018-12-11T00:23:34.421Z,15.17
2018-12-11T00:26:08.442Z,12.40
2018-12-11T00:28:43.841Z,13.80
2018-12-11T00:31:17.881Z,14.87
2018-12-11T00:33:51.599Z,13.40
2018-12-11T00:36:27.796Z,14.20
2018-12-11T00:39:01.867Z,14.53
2018-12-11T00:41:35.588Z,14.87
2018-12-11T00:44:10.490Z,14.23
2018-12-11T00:46:45.841Z,16.40
2018-12-11T00:49:21.755Z,13.93
2018-12-11T00:51:55.898Z,16.77
2018-12-11T00:54:29.839Z,16.03
2018-12-11T00:57:03.958Z,14.10
2018-12-11T00:59:39.458Z,13.17
2018-12-11T01:02:13.759Z,16.37
2018-12-11T01:04:44.131Z,14.67
2018-12-11T01:07:18.390Z,14.90
2018-12-11T01:09:52.767Z,15.27
2018-12-11T01:12:29.947Z,12.93
2018-12-11T01:15:04.480Z,15.83
2018-12-11T01:17:38.528Z,15.63
2018-12-11T01:20:13.729Z,16.03
2018-12-11T01:22:49.063Z,15.13
2018-12-11T01:25:23.393Z,13.97
2018-12-11T01:27:57.955Z,14.33
2018-12-11T01:30:32.076Z,15.43
2018-12-11T01:33:07.722Z,14.03
2018-12-11T01:35:45.272Z,13.90
2018-12-11T01:38:24.724Z,14.63
2018-12-11T01:41:00.842Z,13.30
2018-12-11T01:43:35.786Z,13.13
2018-12-11T01:46:09.937Z,12.17
2018-12-11T01:48:47.594Z,12.07
2018-12-11T01:51:22.287Z,12.03
2018-12-11T01:53:57.261Z,12.47
2018-12-11T01:56:31.456Z,11.73
2018-12-11T01:59:05.465Z,12.27
2018-12-11T02:01:40.221Z,11.20
2018-12-11T02:04:14.152Z,10.40
2018-12-11T02:06:48.231Z,10.30
2018-12-11T02:09:22.219Z,8.37
2018-12-11T02:11:56.913Z,8.20
2018-12-11T02:14:30.855Z,7.83
2018-12-11T02:17:05.787Z,9.77
2018-12-11T02:19:39.968Z,7.70
2018-12-11T02:22:15.437Z,7.40
2018-12-11T02:24:49.770Z,8.73
2018-12-11T02:27:23.672Z,7.50
2018-12-11T02:29:57.897Z,7.50
2018-12-11T02:32:31.905Z,7.60
2018-12-11T02:35:06.886Z,7.70
2018-12-11T02:37:40.972Z,8.40
2018-12-11T02:40:14.947Z,7.30
2018-12-11T02:42:50.005Z,9.00
2018-12-11T02:45:24.680Z,7.90
2018-12-11T02:47:58.485Z,7.42
2018-12-11T02:50:32.711Z,8.20
2018-12-11T02:53:06.730Z,7.17
2018-12-11T02:55:41.250Z,7.87
2018-12-11T02:58:15.320Z,7.17
2018-12-11T03:00:50.036Z,6.83
2018-12-11T03:03:24.122Z,5.60
2018-12-11T03:05:59.068Z,4.90
2018-12-11T03:08:33.514Z,5.10
2018-12-11T03:11:07.403Z,5.63
2018-12-11T03:13:41.546Z,5.65
2018-12-11T03:16:15.359Z,6.30
2018-12-11T03:18:49.876Z,6.87
2018-12-11T03:21:23.642Z,6.00
2018-12-11T03:23:57.526Z,5.40
2018-12-11T03:26:32.040Z,6.12
2018-12-11T03:34:07.725Z,5.27
2018-12-11T03:36:41.852Z,5.37
2018-12-11T03:39:15.765Z,6.65
2018-12-11T03:41:50.102Z,6.27
2018-12-11T03:44:24.595Z,6.37
2018-12-11T03:47:00.606Z,5.87
2018-12-11T03:49:34.718Z,5.83
2018-12-11T03:52:10.235Z,6.30
2018-12-11T03:54:44.276Z,6.20
2018-12-11T03:57:18.060Z,5.20
2018-12-11T03:59:51.894Z,5.35
2018-12-11T04:02:26.184Z,5.63
2018-12-11T04:05:08.005Z,4.65
2018-12-11T04:07:43.223Z,5.67
2018-12-11T04:10:20.553Z,5.35
2018-12-11T04:12:56.633Z,5.03
2018-12-11T04:15:32.057Z,6.10
2018-12-11T04:18:06.847Z,4.80
2018-12-11T04:20:43.997Z,4.70
2018-12-11T04:23:20.501Z,5.77
2018-12-11T04:25:54.593Z,5.53
2018-12-11T04:28:30.672Z,4.75
2018-12-11T04:31:05.714Z,5.05
2018-12-11T04:33:42.427Z,7.10
2018-12-11T04:36:16.475Z,5.10
2018-12-11T04:38:50.750Z,5.47
2018-12-11T04:41:25.105Z,5.03
2018-12-11T04:43:59.162Z,6.67
2018-12-11T04:46:33.494Z,6.47
2018-12-11T04:49:08.281Z,6.15
2018-12-11T04:51:42.530Z,6.03
2018-12-11T04:54:18.843Z,6.40
2018-12-11T04:56:52.928Z,6.80
2018-12-11T04:59:26.873Z,7.10
2018-12-11T05:02:01.216Z,6.80
2018-12-11T05:04:37.002Z,5.80
2018-12-11T05:07:12.181Z,6.72
2018-12-11T05:09:46.760Z,7.70
2018-12-11T05:12:20.698Z,7.33
2018-12-11T05:14:57.337Z,6.50
2018-12-11T05:17:33.301Z,9.03
2018-12-11T05:20:07.451Z,6.95
2018-12-11T05:22:44.591Z,6.25
2018-12-11T05:25:20.414Z,6.63
2018-12-11T05:27:55.788Z,7.87
2018-12-11T05:30:35.448Z,8.05
2018-12-11T05:33:10.686Z,6.97
2018-12-11T05:35:48.729Z,6.80
2018-12-11T05:38:22.861Z,6.40
2018-12-11T05:40:56.782Z,6.03
2018-12-11T05:43:30.970Z,6.87
2018-12-11T05:46:05.479Z,7.60
2018-12-11T05:48:41.770Z,7.33
2018-12-11T05:51:16.314Z,6.27
2018-12-11T05:53:50.476Z,7.08
2018-12-11T05:56:25.283Z,6.80
2018-12-11T05:58:59.542Z,5.77
2018-12-11T06:01:33.332Z,5.47
2018-12-11T06:04:07.648Z,5.15
2018-12-11T06:06:43.184Z,6.00
2018-12-11T06:09:19.304Z,5.47
2018-12-11T06:11:53.311Z,5.62
2018-12-11T06:14:28.017Z,5.45
2018-12-11T06:17:02.068Z,4.72
2018-12-11T06:19:37.969Z,5.28
2018-12-11T06:22:11.873Z,5.53
2018-12-11T06:24:48.153Z,5.70
2018-12-11T06:27:22.230Z,6.78
2018-12-11T06:29:57.722Z,6.83
2018-12-11T06:32:31.813Z,6.20
2018-12-11T06:35:06.123Z,6.70
2018-12-11T06:37:41.295Z,6.90
2018-12-11T06:40:16.140Z,5.97
2018-12-11T06:45:30.977Z,6.20
2018-12-11T06:48:05.178Z,5.80
2018-12-11T06:50:39.473Z,6.33
2018-12-11T06:53:13.591Z,6.10
2018-12-11T06:55:49.441Z,5.93
2018-12-11T06:58:24.358Z,6.83
2018-12-11T07:00:58.668Z,7.55
2018-12-11T07:03:32.810Z,7.27
2018-12-11T07:06:07.061Z,6.47
2018-12-11T07:08:43.239Z,6.85
2018-12-11T07:11:18.578Z,6.20
2018-12-11T07:13:56.440Z,6.28
2018-12-11T07:16:30.951Z,5.92
2018-12-11T07:19:05.018Z,6.00
2018-12-11T07:21:39.739Z,6.67
2018-12-11T07:24:13.737Z,6.08
2018-12-11T07:26:50.337Z,7.00
2018-12-11T07:29:24.182Z,6.10
2018-12-11T07:32:00.600Z,5.47
2018-12-11T07:34:34.869Z,6.80
2018-12-11T07:37:09.025Z,6.87
2018-12-11T07:39:45.531Z,7.33
2018-12-11T07:42:20.529Z,7.55
2018-12-11T07:44:55.573Z,5.47
2018-12-11T07:47:35.031Z,6.77
2018-12-11T07:50:11.306Z,7.62
2018-12-11T07:52:51.026Z,6.67
2018-12-11T07:55:25.409Z,7.65
2018-12-11T07:57:59.819Z,7.33
2018-12-11T08:00:34.225Z,6.75
2018-12-11T08:03:19.810Z,7.10
2018-12-11T08:05:54.255Z,6.60
2018-12-11T08:08:29.307Z,5.93
2018-12-11T08:11:02.865Z,6.50
2018-12-11T08:13:38.137Z,6.00
2018-12-11T08:16:13.834Z,5.00
2018-12-11T08:18:56.431Z,5.60
2018-12-11T08:21:30.485Z,5.30
2018-12-11T08:24:05.843Z,5.40
2018-12-11T08:26:44.594Z,5.53
2018-12-11T08:29:23.087Z,4.75
2018-12-11T08:31:57.440Z,6.10
2018-12-11T08:34:41.044Z,6.83
2018-12-11T08:37:20.501Z,5.47
2018-12-11T08:39:56.172Z,6.47
2018-12-11T08:42:30.582Z,5.10
2018-12-11T08:45:11.969Z,5.15
2018-12-11T08:47:47.619Z,5.50
2018-12-11T08:50:22.148Z,4.97
2018-12-11T08:52:56.586Z,5.10
2018-12-11T08:55:31.332Z,5.27
2018-12-11T08:58:05.463Z,4.83
2018-12-11T09:00:40.235Z,6.20
2018-12-11T09:03:16.157Z,5.43
2018-12-11T09:05:51.284Z,5.50
2018-12-11T09:08:27.060Z,6.20
2018-12-11T09:11:08.406Z,6.17
2018-12-11T09:13:43.908Z,5.47
2018-12-11T09:16:19.011Z,5.55
2018-12-11T09:18:56.317Z,6.37
2018-12-11T09:21:30.785Z,6.00
2018-12-11T09:24:11.861Z,5.42
2018-12-11T09:26:54.443Z,6.13
2018-12-11T09:29:30.403Z,5.20
2018-12-11T09:32:17.641Z,4.70
2018-12-11T09:34:51.707Z,6.50
2018-12-11T09:37:26.512Z,5.50
2018-12-11T09:40:00.993Z,3.50
2018-12-11T09:42:37.529Z,3.73
2018-12-11T09:45:13.928Z,3.33
2018-12-11T09:47:50.287Z,3.35
2018-12-11T09:50:25.989Z,3.30
2018-12-11T09:52:59.788Z,2.70
2018-12-11T09:55:35.000Z,2.23
2018-12-11T09:58:10.925Z,1.93
2018-12-11T10:00:50.447Z,1.83
2018-12-11T10:03:26.966Z,3.10
2018-12-11T10:06:01.073Z,3.53
2018-12-11T10:08:38.888Z,4.20
2018-12-11T10:11:13.293Z,5.10
2018-12-11T10:13:48.090Z,4.47
2018-12-11T10:16:21.973Z,4.50
2018-12-11T10:18:56.486Z,4.07
2018-12-11T10:21:29.989Z,4.37
2018-12-11T10:26:59.983Z,4.50
2018-12-11T10:29:34.961Z,4.07
2018-12-11T10:34:51.276Z,4.77
2018-12-11T10:37:28.619Z,3.53
2018-12-11T10:40:03.360Z,4.03
2018-12-11T10:42:36.970Z,4.10
2018-12-11T10:45:11.572Z,3.87
2018-12-11T10:47:46.579Z,3.80
2018-12-11T10:50:20.583Z,4.30
2018-12-11T10:52:54.836Z,5.03
2018-12-11T10:55:29.016Z,4.40
2018-12-11T10:58:02.562Z,4.80
2018-12-11T11:00:40.169Z,5.30
2018-12-11T11:03:14.122Z,5.20
2018-12-11T11:05:48.705Z,4.30
2018-12-11T11:08:27.613Z,3.00
2018-12-11T11:11:06.059Z,3.40
2018-12-11T11:13:42.449Z,3.07
2018-12-11T11:16:16.740Z,2.90
2018-12-11T11:18:50.854Z,2.70
2018-12-11T11:21:25.722Z,2.80
2018-12-11T11:23:59.917Z,2.10
2018-12-11T11:26:35.834Z,1.97
2018-12-11T11:29:10.112Z,1.93
2018-12-11T11:31:46.371Z,2.20
2018-12-11T11:34:20.530Z,2.30
2018-12-11T11:36:58.707Z,2.33
2018-12-11T11:39:39.576Z,2.10
2018-12-11T11:42:15.153Z,2.80
2018-12-11T11:44:50.879Z,2.90
2018-12-11T11:47:45.428Z,3.07
2018-12-11T11:50:23.404Z,3.07
2018-12-11T11:52:58.637Z,3.17
2018-12-11T11:55:33.815Z,3.63
2018-12-11T11:58:07.595Z,2.85
2018-12-11T12:00:43.989Z,2.98
2018-12-11T12:03:20.494Z,2.80
2018-12-11T12:06:02.167Z,2.73
2018-12-11T12:08:36.541Z,2.97
2018-12-11T12:11:10.703Z,3.70
2018-12-11T12:13:44.710Z,3.00
2018-12-11T12:16:18.847Z,2.90
2018-12-11T12:18:52.729Z,2.80
2018-12-11T12:21:30.370Z,3.07
2018-12-11T12:24:06.701Z,3.53
2018-12-11T12:26:40.962Z,3.47
2018-12-11T12:29:15.132Z,3.70
2018-12-11T12:31:51.474Z,2.67
2018-12-11T12:34:27.891Z,3.00
2018-12-11T12:37:01.965Z,2.80
2018-12-11T12:39:36.488Z,2.93
2018-12-11T12:42:11.114Z,2.70
2018-12-11T12:44:45.044Z,2.83
2018-12-11T12:47:19.081Z,2.57
2018-12-11T12:49:52.765Z,2.70
2018-12-11T12:52:26.938Z,2.80
2018-12-11T12:55:00.559Z,2.93
2018-12-11T12:57:34.676Z,4.37
2018-12-11T13:00:10.322Z,4.40
2018-12-11T13:02:49.942Z,4.53
2018-12-11T13:05:35.446Z,4.70
2018-12-11T13:08:13.483Z,4.87
2018-12-11T13:10:52.401Z,4.37
2018-12-11T13:13:26.673Z,4.50
2018-12-11T13:16:01.617Z,4.03
2018-12-11T13:18:36.528Z,3.70
2018-12-11T13:21:26.130Z,4.20
2018-12-11T13:23:59.885Z,4.23
2018-12-11T13:26:38.938Z,4.33
2018-12-11T13:29:17.168Z,4.00
2018-12-11T13:31:51.200Z,3.90
2018-12-11T13:34:25.514Z,4.10
2018-12-11T13:37:04.740Z,4.30
2018-12-11T13:39:39.162Z,3.40
2018-12-11T13:42:13.535Z,3.10
2018-12-11T13:44:47.317Z,3.83
2018-12-11T13:47:21.988Z,2.70
2018-12-11T13:49:59.793Z,2.80
2018-12-11T13:52:35.772Z,3.00
2018-12-11T13:55:09.552Z,3.23
2018-12-11T13:57:43.598Z,3.80
2018-12-11T14:00:17.733Z,4.20
2018-12-11T14:02:51.959Z,3.40
2018-12-11T14:05:27.681Z,3.17
2018-12-11T14:08:02.066Z,3.80
2018-12-11T14:10:35.895Z,4.00
2018-12-11T14:13:11.417Z,4.60
2018-12-11T14:15:45.556Z,5.20
2018-12-11T14:18:25.545Z,5.93
2018-12-11T14:21:00.142Z,5.43
2018-12-11T14:23:34.043Z,7.53
2018-12-11T14:26:07.987Z,8.17
2018-12-11T14:28:42.342Z,7.54
2018-12-11T14:31:19.509Z,8.10
2018-12-11T14:33:54.254Z,9.80
2018-12-11T14:36:28.290Z,7.93
2018-12-11T14:39:03.169Z,9.07
2018-12-11T14:41:39.689Z,9.20
2018-12-11T14:44:14.334Z,9.33
2018-12-11T14:46:48.377Z,10.53
2018-12-11T14:49:23.758Z,10.80
2018-12-11T14:52:01.638Z,9.13
2018-12-11T14:54:37.142Z,8.10
2018-12-11T14:57:11.285Z,7.70
2018-12-11T14:59:45.482Z,8.23
2018-12-11T15:02:22.458Z,8.50
2018-12-11T15:04:56.339Z,9.20
2018-12-11T15:07:30.484Z,9.73
2018-12-11T15:10:06.134Z,9.93
2018-12-11T15:12:41.389Z,9.73
2018-12-11T15:15:16.140Z,10.53
2018-12-11T15:17:50.205Z,10.87
2018-12-11T15:20:24.043Z,10.77
2018-12-11T15:22:57.980Z,10.20
2018-12-11T15:25:33.715Z,9.20
2018-12-11T15:28:08.948Z,9.60
2018-12-11T15:30:43.950Z,9.90
2018-12-11T15:33:17.558Z,9.27
2018-12-11T15:35:52.051Z,8.07
2018-12-11T15:38:26.210Z,7.35
2018-12-11T15:41:01.125Z,8.43
2018-12-11T15:43:36.468Z,7.97
2018-12-11T15:46:10.646Z,9.30
2018-12-11T15:48:45.046Z,8.93
2018-12-11T15:51:19.114Z,9.57
2018-12-11T15:53:55.217Z,8.63
2018-12-11T15:56:29.313Z,8.67
2018-12-11T15:59:03.341Z,9.23
2018-12-11T16:01:38.144Z,8.67
2018-12-11T16:04:14.134Z,9.80
2018-12-11T16:06:48.226Z,9.80
2018-12-11T16:09:25.944Z,8.53
2018-12-11T16:11:59.729Z,8.87
2018-12-11T16:14:34.749Z,8.63
2018-12-11T16:17:08.840Z,9.57
2018-12-11T16:19:43.754Z,10.27
2018-12-11T16:22:17.857Z,9.97
2018-12-11T16:24:52.528Z,9.60
2018-12-11T16:27:27.628Z,8.53
2018-12-11T16:30:01.945Z,7.67
2018-12-11T16:32:35.907Z,8.10
2018-12-11T16:35:11.705Z,8.53
2018-12-11T16:37:46.143Z,8.27
2018-12-11T16:40:21.698Z,10.30
2018-12-11T16:42:56.705Z,8.43
2018-12-11T16:45:31.169Z,8.93
2018-12-11T16:48:05.105Z,10.20
2018-12-11T16:50:39.331Z,9.60
2018-12-11T16:53:14.233Z,9.23
2018-12-11T16:55:48.408Z,9.17
2018-12-11T16:58:22.572Z,9.13
2018-12-11T17:00:57.271Z,9.00
2018-12-11T17:03:31.079Z,8.37
2018-12-11T17:06:04.870Z,9.63
2018-12-11T17:08:39.001Z,9.40
2018-12-11T17:11:13.336Z,9.93
2018-12-11T17:13:48.308Z,10.93
2018-12-11T17:16:22.568Z,9.60
2018-12-11T17:18:56.233Z,10.93
2018-12-11T17:21:31.280Z,10.57
2018-12-11T17:24:05.961Z,10.13
2018-12-11T17:26:40.209Z,9.70
2018-12-11T17:29:15.954Z,8.90
2018-12-11T17:31:49.807Z,10.22
2018-12-11T17:34:23.955Z,10.50
2018-12-11T17:36:57.536Z,10.63
2018-12-11T17:39:31.740Z,11.53
2018-12-11T17:42:05.858Z,11.67
2018-12-11T17:44:41.587Z,10.43
2018-12-11T17:47:15.474Z,10.37
2018-12-11T17:49:49.902Z,12.80
2018-12-11T17:52:23.932Z,9.93
2018-12-11T17:54:58.107Z,10.50
2018-12-11T17:57:32.235Z,12.33
2018-12-11T18:00:06.578Z,11.47
2018-12-11T18:02:41.541Z,11.20
2018-12-11T18:05:15.512Z,11.33
2018-12-11T18:07:49.204Z,11.00
2018-12-11T18:10:23.095Z,10.50
2018-12-11T18:12:58.633Z,11.00
2018-12-11T18:15:32.675Z,12.10
2018-12-11T18:18:07.174Z,11.57
2018-12-11T18:20:43.430Z,11.40
2018-12-11T18:23:17.576Z,11.77
2018-12-11T18:25:51.971Z,10.37
2018-12-11T18:28:26.987Z,10.97
2018-12-11T18:31:01.221Z,10.90
2018-12-11T18:33:35.418Z,11.90
2018-12-11T18:36:10.880Z,12.13
2018-12-11T18:38:46.391Z,12.63
2018-12-11T18:41:20.546Z,12.40
2018-12-11T18:43:54.698Z,11.03
2018-12-11T18:46:30.698Z,14.47
2018-12-11T18:49:07.183Z,13.17
2018-12-11T18:51:41.515Z,11.57
2018-12-11T18:54:15.693Z,11.88
2018-12-11T18:56:49.754Z,11.33
2018-12-11T18:59:23.897Z,11.30
2018-12-11T19:01:59.177Z,11.90
2018-12-11T19:04:34.498Z,14.57
2018-12-11T19:09:46.626Z,13.17
2018-12-11T19:12:20.712Z,12.47
2018-12-11T19:14:55.869Z,12.07
2018-12-11T19:17:30.151Z,13.23
2018-12-11T19:20:04.877Z,12.97
2018-12-11T19:22:39.367Z,14.33
2018-12-11T19:25:18.117Z,13.87
2018-12-11T19:27:53.477Z,12.37
2018-12-11T19:30:28.451Z,13.53
2018-12-11T19:33:03.219Z,13.33
2018-12-11T19:35:37.647Z,14.53
2018-12-11T19:38:11.968Z,13.30
2018-12-11T19:40:47.913Z,14.00
2018-12-11T19:43:22.897Z,12.63
2018-12-11T19:45:56.919Z,15.03
2018-12-11T19:48:32.424Z,14.53
2018-12-11T19:51:06.703Z,13.80
2018-12-11T19:53:40.724Z,14.30
2018-12-11T19:56:15.128Z,13.87
2018-12-11T19:58:50.096Z,14.43
2018-12-11T20:01:24.551Z,14.00
2018-12-11T20:03:58.591Z,13.60
2018-12-11T20:06:34.223Z,13.60
2018-12-11T20:09:09.561Z,15.10
2018-12-11T20:11:43.737Z,14.33
2018-12-11T20:14:18.030Z,12.83
2018-12-11T20:16:53.738Z,14.57
2018-12-11T20:19:28.004Z,12.53
2018-12-11T20:22:03.183Z,13.40
2018-12-11T20:24:37.256Z,13.70
2018-12-11T20:27:11.164Z,16.07
2018-12-11T20:29:45.349Z,15.97
2018-12-11T20:32:20.554Z,17.63
2018-12-11T20:34:54.755Z,16.60
2018-12-11T20:37:28.695Z,16.33
2018-12-11T20:40:02.991Z,16.13
2018-12-11T20:42:36.937Z,15.25
2018-12-11T20:45:10.975Z,16.13
2018-12-11T20:47:46.109Z,16.93
2018-12-11T20:50:21.437Z,17.77
2018-12-11T20:52:56.242Z,17.17
2018-12-11T20:55:30.101Z,18.57
2018-12-11T20:58:05.339Z,15.57
2018-12-11T21:00:40.735Z,18.63
2018-12-11T21:03:14.946Z,16.42
2018-12-11T21:05:49.152Z,17.10
2018-12-11T21:08:25.786Z,16.57
2018-12-11T21:11:00.471Z,17.60
2018-12-11T21:13:34.769Z,14.90
2018-12-11T21:16:11.080Z,13.60
2018-12-11T21:18:45.441Z,12.83
2018-12-11T21:21:19.869Z,13.53
2018-12-11T21:23:55.209Z,12.63
2018-12-11T21:26:29.200Z,13.83
2018-12-11T21:29:03.825Z,14.00
2018-12-11T21:31:39.152Z,13.78
2018-12-11T21:34:14.151Z,13.40
2018-12-11T21:36:49.107Z,14.70
2018-12-11T21:39:23.047Z,14.03
2018-12-11T21:41:57.258Z,13.17
2018-12-11T21:44:31.324Z,11.10
2018-12-11T21:47:05.570Z,13.20
2018-12-11T21:49:39.666Z,14.70
2018-12-11T21:52:15.940Z,13.37
2018-12-11T21:54:49.671Z,14.17
2018-12-11T21:57:23.429Z,15.80
2018-12-11T21:59:57.893Z,12.17
2018-12-11T22:02:32.162Z,13.07
2018-12-11T22:05:07.143Z,10.70
2018-12-11T22:10:22.811Z,14.10
2018-12-11T22:12:57.974Z,11.30
2018-12-11T22:15:31.948Z,11.37
2018-12-11T22:18:05.933Z,9.77
2018-12-11T22:20:39.927Z,10.17
2018-12-11T22:23:14.645Z,10.27
2018-12-11T22:25:48.911Z,10.08
2018-12-11T22:28:23.008Z,11.27
2018-12-11T22:30:58.083Z,10.90
2018-12-11T22:33:33.252Z,12.47
2018-12-11T22:36:07.818Z,11.87
2018-12-11T22:38:50.053Z,12.03
2018-12-11T22:41:24.366Z,11.23
2018-12-11T22:43:59.789Z,11.33
2018-12-11T22:46:34.896Z,11.40
2018-12-11T22:49:09.024Z,11.73
2018-12-11T22:51:43.585Z,11.47
2018-12-11T22:54:18.890Z,13.20
2018-12-11T22:56:55.393Z,12.00
2018-12-11T22:59:29.932Z,12.27
2018-12-11T23:02:04.951Z,11.70
2018-12-11T23:04:41.621Z,12.63
2018-12-11T23:07:15.715Z,10.77
2018-12-11T23:09:49.587Z,9.60
2018-12-11T23:12:24.348Z,11.33
2018-12-11T23:15:00.947Z,10.83
2018-12-11T23:17:44.204Z,9.37
2018-12-11T23:20:19.588Z,12.40
2018-12-11T23:22:53.837Z,12.37
2018-12-11T23:25:28.029Z,10.07
2018-12-11T23:28:03.387Z,9.97
2018-12-11T23:30:38.310Z,11.53
2018-12-11T23:33:12.804Z,12.30
2018-12-11T23:35:49.225Z,10.53
2018-12-11T23:38:23.532Z,12.33
2018-12-11T23:40:58.518Z,12.23
2018-12-11T23:43:32.305Z,15.07
2018-12-11T23:46:08.455Z,12.90
2018-12-11T23:48:42.901Z,12.23
2018-12-11T23:51:16.999Z,10.90
2018-12-11T23:53:51.260Z,11.83
2018-12-11T23:56:26.188Z,11.50
2018-12-11T23:59:03.674Z,10.23
